Timeline UpdatesTrip UpdatesNews PostsPvt Posts♥♥Travel TipsAdmin PostsConv PostsFollowed PostsChat RequestsBlog PostsPNR Posts

Disclaimer
Search
 
 
Fri Dec 19, 2014 19:10:59 ISTHomeTrainsΣChainsAtlasPNRForumGalleryNewsFAQTripsMembersLoginFeedback
PNR Super Search

Ticket PNR Status Inquiry - PNR: 424-xxxxxxx (PRS)

OLD STATUS

Status Last Updated on: Jun 24 2012 (12:47PM) IST

Date of Journey: Thu Jun 21, 2012   Class: AC 2-tier - 2A   (Total Seats available for this Class/Quota: Avbl >53)
Passenger 1: RA2 3 (Booking Status: W/L 48,GNWL)
Chart PREPARED

Grand Trunk (GT) Express/12615

Travel Time: 35h 15m    38 halts    Distance: 2182 km    Avg Speed: 61 km/hr
Type: SuperFast
Zone: SR/Southern
Departs @ 19:15 (Avg 2m late)
Platform# 3
SMTWTFS
Chennai Central/MAS 
Arrives @ 06:30 +2 nights (Avg 47m late)
Platform# 4
SMTWTFS
New Delhi/NDLS 

38 halts. 313 intermediate Stations between Chennai Central and New Delhi

Show ALL intermediate Stations  Show Old Time-Table

#TrkCodeStation NameX/OArrivesAvgDepartsAvgHaltPFDay#KmSpeedElevZoneAddress
1/==/MASChennai Central (12)»  -19:15+2310.0619mSRChennai 600003, Tamil Nadu
2/==/GDRGudur Junction (3)X  21:30+321:32+72m21137.49619mSCRGudur, Andhra Pradesh
3/==/NLRNellore (4)X  21:57 21:56+2121:58+211 2m21175.88221mSCRNellore, Andhra Pradesh
4/==/OGLOngole (3)X  23:24 23:23+2523:25+251 2m11292.68212mSCROngole, Andhra Pradesh
5/==/CLXChirala (4)X  00:01+2800:02+281m12342.0908mSCRChirala, Andhra Pradesh
6/==/BPPBapatla (3)  00:12+3100:13+321m32357.08210mSCRBapatla, Andhra Pradesh
7/==/TELTenali Junction (5)X  00:44+3500:45+351m42399.62716mSCRTel: 08644-227834, Andhra Pradesh
8/==/BZAVijayawada Junction (10)X  01:55+202:05+510m62430.98224mSCRVijayawada 520001, Andhra Pradesh
9/==/KMTKhammam (2)  03:18+2403:20+232m22531.266118mSCRKhammam 507001, Telangana
10/==/WLWarangal (3)  04:58+1605:00+192m22638.878271mSCRWarangal., Telangana
11/==/RDMRamagundam (3)  06:19 06:18+2006:20+201 2m12740.063170mSCRKarimnagar Dist. Ph : 08728 - 255237, Telangana
12/==/MCIManchiryal (3)  06:33+2306:34+231m12753.771159mSCRAdilabad Dist., Telangana
13/==/SKZRSirpur Kaghaznagar (3)  07:24 07:23+1107:25+101 2m12812.052181mSCRAdilabad Dist., Telangana
14/==/BPQBalharshah Junction (5)X  08:45+608:55+910m52881.843188mCRBallarpur. Ph : 07172 - 240341, Maharashtra
15/==/CDChandrapur Maharashtra (3)  09:14+1409:15+151m22895.583194mCRChandrapur 442401, Maharashtra
16/==/HGTHinganghat (3)  10:17+2210:18+231m--2981.048228mCRHinganghat, Maharashtra
17/==/SEGMSewagram Junction (5)  10:59+1411:00+151m321014.161279mCRWardha, Maharashtra
18/==/NGPNagpur Junction (8)XO  12:15+1112:25+1210m121090.379314mCRNagpur 440001, Maharashtra
19/==/NRKRNarkher Junction (4)  13:30+1713:31+181m121176.461411mCRDistrict Nagpur, Maharashtra
20/==/PARPandhurna (2)X  13:49+1813:50+201m221194.759481mCRDistt: Chhindwara, Madhya Pradesh
21/==/AMLAAmla Junction (5)X  14:55+1514:57+172m221258.372733mCRAmla Distt. Betul, Madhya Pradesh
22/==/BZUBetul (3)  15:16+1815:17+211m221281.253644mCRBetul, Madhya Pradesh
23/==/GDYAGhoradongri (3)  15:58+2015:59+211m121317.256407mCRBetul, Madhya Pradesh
24/==/ETItarsi Junction (7)  17:15+1417:20+185m121387.560329mWCRItarsi 461111, Madhya Pradesh
25/==/HBDHoshangabad (2)X  17:39 17:38+2117:40+211 2m121405.662308mWCRHoshangabad, Madhya Pradesh
26/==/HBJBhopal HabibGanj (5)X  18:46 18:45+3018:47+301 2m321473.011496mWCRHabibGanj, Madhya Pradesh
27/==/BPLBhopal Junction (6)X  19:25 19:20+1319:30+135 10m321479.387497mWCRBhopal, Madhya Pradesh
28/==/BHSVidisha (3)  20:08 20:07+1720:09+171 2m121532.881433mWCRVidisha, Madhya Pradesh
29/==/BAQGanj Basoda (4) new halt!!XO20:38+1720:40+172m--21572.161415mWCRVidisha, Madhya Pradesh
30/==/BINABina Junction (5)  21:20 21:25+1021:25 21:30+105m321617.878414mWCRJn Pt - KATNI/GUNA/ BPL/JHS, Madhya Pradesh
31/==/JHSJhansi Junction (7)X  23:30 23:28+3023:38 23:40+318 12m421771.184259mNCRJhansi, Uttar Pradesh
32/==/GWLGwalior Junction (4)X  00:51 00:50+4800:56 00:55+485m431868.893214mNCRGwalior, Madhya Pradesh
33/==/MRAMorena (3)  01:22 01:20+5501:23 01:22+551 2m231907.370176mNCRMorena, Madhya Pradesh
34/==/DHODholpur Junction (3)X  01:47 01:45+5601:48 01:47+591 2m131934.254177mNCRDholpur, Rajasthan
35/==/AGCAgra Cantt. (6)X  02:45+1:0302:50+1:065m231986.834174mNCRAgra, Uttar Pradesh
36/==/RKMRaja Ki Mandi (4)X  02:58 02:57+1:1002:59+1:091 2m131990.865170mNCRAgra, Uttar Pradesh
37/==/MTJMathura Junction (10)  03:45+1:0503:50+1:065m232040.576179mNCRMathura, Uttar Pradesh
38/==/FDBFaridabad (4)  05:20 05:19+5905:21+591 2m232153.634206mNRold Faridabad, Haryana
39/==/NZMDelhi Hazrat Nizamuddin (7)X  05:57 05:58+5505:59 06:00+552m332174.415209mNRNew Delhi 110013, Delhi NCT
40/==/NDLSNew Delhi (16)•  06:20 06:30+47-432181.8-215mNRNew Delhi 110002, Delhi NCT
Scroll to Top
Scroll to Bottom


Go to Mobile site